createdAt,value
2018-12-05T00:01:19.625Z,1.20
2018-12-05T00:03:31.465Z,1.30
2018-12-05T00:05:41.751Z,1.40
2018-12-05T00:07:52.175Z,1.40
2018-12-05T00:09:59.090Z,1.50
2018-12-05T00:12:12.287Z,1.50
2018-12-05T00:14:18.893Z,1.60
2018-12-05T00:16:28.975Z,1.60
2018-12-05T00:18:42.783Z,1.70
2018-12-05T00:21:00.879Z,1.80
2018-12-05T00:23:24.650Z,1.80
2018-12-05T00:25:40.412Z,1.90
2018-12-05T00:27:45.998Z,1.90
2018-12-05T00:29:55.959Z,1.90
2018-12-05T00:32:11.397Z,2.00
2018-12-05T00:34:27.721Z,2.00
2018-12-05T00:36:37.879Z,2.00
2018-12-05T00:38:45.262Z,2.00
2018-12-05T00:41:03.474Z,2.00
2018-12-05T00:43:12.983Z,2.10
2018-12-05T00:45:28.803Z,2.10
2018-12-05T00:47:41.641Z,2.10
2018-12-05T00:49:49.359Z,2.10
2018-12-05T00:51:55.224Z,2.10
2018-12-05T00:54:05.058Z,2.10
2018-12-05T00:56:14.845Z,2.00
2018-12-05T00:58:21.563Z,2.00
2018-12-05T01:00:30.648Z,2.00
2018-12-05T01:02:33.886Z,1.90
2018-12-05T01:04:45.595Z,1.90
2018-12-05T01:06:55.187Z,1.90
2018-12-05T01:09:12.815Z,1.80
2018-12-05T01:11:16.287Z,1.80
2018-12-05T01:13:23.944Z,1.70
2018-12-05T01:15:33.827Z,1.70
2018-12-05T01:17:43.575Z,1.70
2018-12-05T01:19:48.832Z,1.70
2018-12-05T01:24:24.534Z,1.70
2018-12-05T01:26:32.986Z,1.60
2018-12-05T01:28:41.508Z,1.60
2018-12-05T01:30:48.642Z,1.60
2018-12-05T01:32:53.102Z,1.60
2018-12-05T01:34:58.242Z,1.60
2018-12-05T01:37:07.166Z,1.60
2018-12-05T01:39:18.206Z,1.60
2018-12-05T01:41:28.212Z,1.50
2018-12-05T01:43:37.474Z,1.50
2018-12-05T01:45:47.718Z,1.50
2018-12-05T01:47:55.237Z,1.50
2018-12-05T01:50:13.057Z,1.50
2018-12-05T01:52:17.769Z,1.50
2018-12-05T01:54:23.578Z,1.50
2018-12-05T01:56:33.851Z,1.50
2018-12-05T01:58:46.354Z,1.50
2018-12-05T02:01:27.734Z,1.50
2018-12-05T02:03:36.501Z,1.60
2018-12-05T02:06:16.985Z,1.60
2018-12-05T02:08:27.461Z,1.60
2018-12-05T02:10:31.612Z,1.60
2018-12-05T02:12:41.935Z,1.60
2018-12-05T02:14:58.676Z,1.50
2018-12-05T02:17:06.220Z,1.50
2018-12-05T02:32:11.674Z,1.40
2018-12-05T02:34:18.427Z,1.40
2018-12-05T02:36:21.740Z,1.30
2018-12-05T02:41:02.266Z,1.30
2018-12-05T02:43:13.567Z,1.20
2018-12-05T02:45:34.415Z,1.20
2018-12-05T02:47:50.648Z,1.20
2018-12-05T02:50:08.338Z,1.20
2018-12-05T02:52:28.757Z,1.20
2018-12-05T02:54:45.983Z,1.20
2018-12-05T02:57:09.600Z,1.10
2018-12-05T02:59:12.965Z,1.10
2018-12-05T03:01:19.143Z,1.00
2018-12-05T03:03:22.641Z,1.00
2018-12-05T03:05:29.257Z,1.00
2018-12-05T03:07:38.014Z,1.00
2018-12-05T03:10:00.159Z,0.90
2018-12-05T03:12:14.547Z,0.90
2018-12-05T03:14:20.739Z,0.90
2018-12-05T03:16:29.510Z,0.90
2018-12-05T03:18:34.556Z,0.90
2018-12-05T03:20:37.906Z,0.90
2018-12-05T03:22:43.519Z,0.80
2018-12-05T03:24:49.721Z,0.80
2018-12-05T03:26:54.496Z,0.80
2018-12-05T03:28:58.715Z,0.70
2018-12-05T03:31:06.447Z,0.70
2018-12-05T03:33:11.418Z,0.70
2018-12-05T03:35:21.170Z,0.70
2018-12-05T03:37:26.186Z,0.60
2018-12-05T03:39:30.269Z,0.60
2018-12-05T03:41:37.113Z,0.60
2018-12-05T03:43:48.463Z,0.50
2018-12-05T03:45:54.068Z,0.60
2018-12-05T03:47:57.388Z,0.50
2018-12-05T03:50:06.109Z,0.60
2018-12-05T03:52:11.610Z,0.50
2018-12-05T03:54:17.700Z,0.50
2018-12-05T03:56:21.037Z,0.50
2018-12-05T03:58:24.517Z,0.50
2018-12-05T04:00:38.343Z,0.50
2018-12-05T04:02:50.209Z,0.50
2018-12-05T04:05:05.230Z,0.50
2018-12-05T04:10:17.066Z,0.40
2018-12-05T04:12:26.913Z,0.40
2018-12-05T04:15:59.661Z,0.40
2018-12-05T04:18:44.304Z,0.40
2018-12-05T04:20:53.525Z,0.30
2018-12-05T04:23:10.499Z,0.30
2018-12-05T04:25:26.223Z,0.30
2018-12-05T04:27:34.954Z,0.30
2018-12-05T04:29:38.260Z,0.30
2018-12-05T04:31:41.663Z,0.20
2018-12-05T04:33:46.668Z,0.20
2018-12-05T04:35:50.784Z,0.20
2018-12-05T04:38:01.666Z,0.20
2018-12-05T04:40:08.347Z,0.20
2018-12-05T04:42:19.731Z,0.10
2018-12-05T04:44:23.556Z,0.10
2018-12-05T04:46:26.708Z,0.10
2018-12-05T04:48:30.673Z,0.10
2018-12-05T04:50:34.511Z,0.10
2018-12-05T04:52:37.777Z,0.10
2018-12-05T04:54:41.062Z,0.10
2018-12-05T04:56:44.272Z,0.10
2018-12-05T04:58:50.009Z,0.10
2018-12-05T05:01:04.555Z,0.10
2018-12-05T05:06:05.883Z,0.00
2018-12-05T05:08:26.772Z,0.00
2018-12-05T05:16:57.739Z,0.00
2018-12-05T05:21:55.685Z,0.00
2018-12-05T05:24:03.047Z,-0.10
2018-12-05T05:26:16.840Z,-0.10
2018-12-05T05:28:31.992Z,-0.10
2018-12-05T05:30:39.868Z,-0.10
2018-12-05T05:32:48.613Z,-0.10
2018-12-05T05:34:53.933Z,-0.10
2018-12-05T05:37:06.239Z,-0.10
2018-12-05T05:39:15.395Z,-0.10
2018-12-05T05:41:25.342Z,-0.10
2018-12-05T05:43:30.307Z,-0.10
2018-12-05T05:45:47.165Z,-0.10
2018-12-05T05:48:00.878Z,-0.20
2018-12-05T05:50:25.575Z,-0.10
2018-12-05T05:52:47.270Z,-0.20
2018-12-05T05:55:07.463Z,-0.20
2018-12-05T05:57:21.067Z,-0.20
2018-12-05T05:59:44.593Z,-0.20
2018-12-05T06:02:13.441Z,-0.20
2018-12-05T06:45:24.168Z,-0.30
2018-12-05T06:55:39.038Z,-0.30
2018-12-05T06:57:39.315Z,-0.30
2018-12-05T06:59:42.599Z,-0.30
2018-12-05T07:01:47.589Z,-0.30
2018-12-05T07:03:50.866Z,-0.30
2018-12-05T07:05:54.595Z,-0.20
2018-12-05T07:07:57.781Z,-0.20
2018-12-05T07:12:36.727Z,-0.20
2018-12-05T07:14:40.717Z,-0.10
2018-12-05T07:16:45.015Z,-0.10
2018-12-05T07:18:48.587Z,-0.10
2018-12-05T07:20:52.252Z,-0.10
2018-12-05T07:22:55.611Z,-0.10
2018-12-05T07:24:58.893Z,0.00
2018-12-05T07:27:02.126Z,0.00
2018-12-05T07:29:05.788Z,0.00
2018-12-05T07:31:09.669Z,0.10
2018-12-05T07:33:13.251Z,0.10
2018-12-05T07:35:16.595Z,0.10
2018-12-05T07:37:20.424Z,0.20
2018-12-05T07:39:23.734Z,0.20
2018-12-05T07:41:27.033Z,0.30
2018-12-05T07:43:33.366Z,0.30
2018-12-05T07:45:36.668Z,0.40
2018-12-05T07:47:40.691Z,0.40
2018-12-05T07:49:56.622Z,0.50
2018-12-05T07:52:06.627Z,0.60
2018-12-05T07:54:10.673Z,0.60
2018-12-05T07:56:13.973Z,0.70
2018-12-05T07:58:18.077Z,0.80
2018-12-05T08:00:22.200Z,0.80
2018-12-05T08:02:26.951Z,0.90
2018-12-05T08:04:30.268Z,0.90
2018-12-05T08:06:53.984Z,1.00
2018-12-05T08:08:58.687Z,1.10
2018-12-05T08:14:24.167Z,1.20
2018-12-05T08:16:40.582Z,1.30
2018-12-05T08:18:51.129Z,1.40
2018-12-05T08:21:01.435Z,1.40
2018-12-05T08:23:09.324Z,1.50
2018-12-05T08:25:14.787Z,1.60
2018-12-05T08:27:22.276Z,1.70
2018-12-05T08:29:25.651Z,1.70
2018-12-05T08:31:29.281Z,1.80
2018-12-05T08:33:32.724Z,1.90
2018-12-05T08:35:36.075Z,1.90
2018-12-05T08:37:39.376Z,2.00
2018-12-05T08:39:42.655Z,2.10
2018-12-05T08:41:56.529Z,2.20
2018-12-05T08:44:05.595Z,2.20
2018-12-05T08:46:17.043Z,2.20
2018-12-05T08:48:31.387Z,2.30
2018-12-05T08:50:34.855Z,2.30
2018-12-05T08:52:41.143Z,2.30
2018-12-05T08:54:50.618Z,2.30
2018-12-05T08:57:00.569Z,2.40
2018-12-05T08:59:04.229Z,2.40
2018-12-05T09:03:30.280Z,2.50
2018-12-05T09:05:38.072Z,2.60
2018-12-05T09:07:47.488Z,2.60
2018-12-05T09:10:00.836Z,2.60
2018-12-05T09:14:18.584Z,2.60
2018-12-05T09:16:22.813Z,2.70
2018-12-05T09:18:33.199Z,2.70
2018-12-05T09:20:42.854Z,2.80
2018-12-05T09:22:54.560Z,2.80
2018-12-05T09:25:00.438Z,2.90
2018-12-05T09:27:09.121Z,3.00
2018-12-05T09:29:13.002Z,3.10
2018-12-05T09:31:19.700Z,3.20
2018-12-05T09:35:43.032Z,3.30
2018-12-05T09:37:53.111Z,3.30
2018-12-05T09:40:09.188Z,3.30
2018-12-05T09:42:17.411Z,3.30
2018-12-05T09:44:29.687Z,3.30
2018-12-05T09:46:37.429Z,3.30
2018-12-05T09:48:48.398Z,3.30
2018-12-05T09:50:59.169Z,3.40
2018-12-05T09:55:16.132Z,3.40
2018-12-05T09:57:28.832Z,3.50
2018-12-05T09:59:34.698Z,3.50
2018-12-05T10:01:42.642Z,3.60
2018-12-05T10:03:48.336Z,3.70
2018-12-05T10:08:13.498Z,3.80
2018-12-05T10:10:21.732Z,3.80
2018-12-05T10:14:45.271Z,3.90
2018-12-05T10:19:09.760Z,4.00
2018-12-05T10:21:19.883Z,4.00
2018-12-05T10:23:29.473Z,4.00
2018-12-05T10:25:37.250Z,4.10
2018-12-05T10:30:07.009Z,4.00
2018-12-05T10:34:36.662Z,4.20
2018-12-05T10:36:45.203Z,4.10
2018-12-05T10:41:02.243Z,4.30
2018-12-05T10:43:15.685Z,4.30
2018-12-05T10:45:23.025Z,4.40
2018-12-05T10:49:41.907Z,4.50
2018-12-05T10:51:54.112Z,4.60
2018-12-05T10:54:07.453Z,4.70
2018-12-05T10:56:20.174Z,4.80
2018-12-05T10:58:31.846Z,4.80
2018-12-05T11:00:44.534Z,5.00
2018-12-05T11:02:59.180Z,5.10
2018-12-05T11:05:13.334Z,5.20
2018-12-05T11:30:59.622Z,5.80
2018-12-05T11:33:02.782Z,6.20
2018-12-05T11:37:23.031Z,6.40
2018-12-05T11:39:27.273Z,6.50
2018-12-05T11:41:54.027Z,6.50
2018-12-05T11:57:09.760Z,6.70
2018-12-05T11:59:14.739Z,6.80
2018-12-05T12:01:17.963Z,6.80
2018-12-05T12:12:03.877Z,6.90
2018-12-05T12:14:13.835Z,6.90
2018-12-05T12:16:20.305Z,6.90
2018-12-05T12:18:27.604Z,6.90
2018-12-05T12:20:33.738Z,6.90
2018-12-05T12:23:11.959Z,7.00
2018-12-05T12:25:32.506Z,7.00
2018-12-05T12:27:45.186Z,7.00
2018-12-05T12:29:53.919Z,7.00
2018-12-05T12:32:14.689Z,7.00
2018-12-05T12:51:55.634Z,7.20
2018-12-05T12:57:16.259Z,7.30
2018-12-05T12:59:52.146Z,7.30
2018-12-05T13:02:16.185Z,7.30
2018-12-05T13:04:29.350Z,7.30
2018-12-05T13:08:51.345Z,7.30
2018-12-05T13:11:10.078Z,7.40
2018-12-05T13:13:23.652Z,7.40
2018-12-05T13:15:35.091Z,7.50
2018-12-05T13:17:42.223Z,7.50
2018-12-05T13:22:42.497Z,7.50
2018-12-05T13:24:55.743Z,7.50
2018-12-05T13:27:18.083Z,7.50
2018-12-05T14:11:12.070Z,7.10
2018-12-05T14:15:41.224Z,7.20
2018-12-05T14:18:14.531Z,7.20
2018-12-05T14:21:37.814Z,7.20
2018-12-05T14:23:41.191Z,7.20
2018-12-05T14:34:25.902Z,7.20
2018-12-05T14:39:08.526Z,6.90
2018-12-05T14:41:25.472Z,6.90
2018-12-05T14:43:38.590Z,6.80
2018-12-05T14:45:49.385Z,6.90
2018-12-05T14:47:58.020Z,6.90
2018-12-05T14:50:16.712Z,6.80
2018-12-05T14:52:28.415Z,6.80
2018-12-05T14:54:41.620Z,6.80
2018-12-05T14:56:58.062Z,6.90
2018-12-05T14:59:11.566Z,6.90
2018-12-05T15:01:29.750Z,6.90
2018-12-05T15:03:43.408Z,6.90
2018-12-05T15:05:54.925Z,6.90
2018-12-05T15:08:06.188Z,6.80
2018-12-05T15:10:31.502Z,6.80
2018-12-05T15:12:47.721Z,6.80
2018-12-05T15:14:57.455Z,6.70
2018-12-05T15:17:09.243Z,6.70
2018-12-05T15:19:25.520Z,6.70
2018-12-05T15:21:37.707Z,6.70
2018-12-05T15:23:55.216Z,6.70
2018-12-05T15:26:18.039Z,6.70
2018-12-05T15:30:57.625Z,6.60
2018-12-05T15:33:20.214Z,6.70
2018-12-05T15:35:42.158Z,6.70
2018-12-05T15:37:56.841Z,6.60
2018-12-05T15:40:11.795Z,6.70
2018-12-05T15:42:35.790Z,6.70
2018-12-05T15:48:29.925Z,6.60
2018-12-05T15:53:02.494Z,6.60
2018-12-05T15:55:07.575Z,6.60
2018-12-05T15:57:12.180Z,6.60
2018-12-05T15:59:16.913Z,6.60
2018-12-05T16:01:20.616Z,6.60
2018-12-05T16:03:26.296Z,6.60
2018-12-05T16:05:31.861Z,6.60
2018-12-05T16:07:36.475Z,6.60
2018-12-05T16:09:40.421Z,6.60
2018-12-05T16:11:44.267Z,6.70
2018-12-05T16:13:50.524Z,6.70
2018-12-05T16:15:54.113Z,6.70
2018-12-05T16:17:58.259Z,6.70
2018-12-05T16:20:02.153Z,6.70
2018-12-05T16:22:06.139Z,6.70
2018-12-05T16:24:09.786Z,6.70
2018-12-05T16:26:13.503Z,6.70
2018-12-05T16:28:17.258Z,6.70
2018-12-05T16:30:20.773Z,6.70
2018-12-05T16:32:23.902Z,6.70
2018-12-05T16:34:27.087Z,6.80
2018-12-05T16:36:30.434Z,6.80
2018-12-05T16:38:33.936Z,6.70
2018-12-05T16:40:37.352Z,6.80
2018-12-05T16:42:40.591Z,6.80
2018-12-05T16:44:44.052Z,6.80
2018-12-05T16:46:47.296Z,6.80
2018-12-05T16:48:50.498Z,6.80
2018-12-05T16:50:53.875Z,6.70
2018-12-05T16:52:57.144Z,6.80
2018-12-05T16:55:00.527Z,6.80
2018-12-05T16:57:03.710Z,6.80
2018-12-05T16:59:06.967Z,6.70
2018-12-05T17:01:10.297Z,6.80
2018-12-05T17:03:17.062Z,6.80
2018-12-05T17:05:20.362Z,6.80
2018-12-05T17:07:23.533Z,6.80
2018-12-05T17:09:26.741Z,6.90
2018-12-05T17:11:29.942Z,6.90
2018-12-05T17:13:35.034Z,6.90
2018-12-05T17:15:38.258Z,6.90
2018-12-05T17:17:41.390Z,6.90
2018-12-05T17:19:46.239Z,6.90
2018-12-05T17:21:49.548Z,7.00
2018-12-05T17:23:52.782Z,7.00
2018-12-05T17:25:56.423Z,7.00
2018-12-05T17:27:59.707Z,7.00
2018-12-05T17:30:02.931Z,7.00
2018-12-05T17:32:06.250Z,7.10
2018-12-05T17:34:09.473Z,7.10
2018-12-05T17:36:12.619Z,7.10
2018-12-05T17:38:15.742Z,7.10
2018-12-05T17:40:18.952Z,7.10
2018-12-05T17:42:22.192Z,7.10
2018-12-05T17:44:25.385Z,7.00
2018-12-05T17:46:28.531Z,7.00
2018-12-05T17:48:31.682Z,7.00
2018-12-05T17:50:34.806Z,7.10
2018-12-05T17:52:37.950Z,7.10
2018-12-05T17:54:41.114Z,7.10
2018-12-05T17:56:44.244Z,7.10
2018-12-05T17:58:47.450Z,7.10
2018-12-05T18:00:50.607Z,7.10
2018-12-05T18:02:53.743Z,7.00
2018-12-05T18:04:56.946Z,7.10
2018-12-05T18:07:00.184Z,7.10
2018-12-05T18:09:04.142Z,7.10
2018-12-05T18:11:07.281Z,7.10
2018-12-05T18:13:12.391Z,7.10
2018-12-05T18:15:15.522Z,7.10
2018-12-05T18:17:18.653Z,7.10
2018-12-05T18:19:21.767Z,7.10
2018-12-05T18:21:24.903Z,7.20
2018-12-05T18:23:28.037Z,7.20
2018-12-05T18:25:31.160Z,7.20
2018-12-05T18:27:34.480Z,7.20
2018-12-05T18:29:37.617Z,7.20
2018-12-05T18:31:40.743Z,7.20
2018-12-05T18:33:43.877Z,7.20
2018-12-05T18:35:47.087Z,7.30
2018-12-05T18:37:50.226Z,7.30
2018-12-05T18:39:53.349Z,7.30
2018-12-05T18:41:56.476Z,7.30
2018-12-05T18:43:59.680Z,7.30
2018-12-05T18:46:02.900Z,7.30
2018-12-05T18:48:06.069Z,7.30
2018-12-05T18:50:09.370Z,7.20
2018-12-05T18:52:12.507Z,7.30
2018-12-05T18:54:15.642Z,7.30
2018-12-05T18:56:18.863Z,7.30
2018-12-05T18:58:22.971Z,7.30
2018-12-05T19:00:26.210Z,7.30
2018-12-05T19:02:31.499Z,7.30
2018-12-05T19:04:35.341Z,7.30
2018-12-05T19:06:39.569Z,7.40
2018-12-05T19:08:42.832Z,7.30
2018-12-05T19:10:46.339Z,7.40
2018-12-05T19:12:50.266Z,7.30
2018-12-05T19:14:54.999Z,7.30
2018-12-05T19:16:58.258Z,7.30
2018-12-05T19:19:02.063Z,7.30
2018-12-05T19:21:05.862Z,7.40
2018-12-05T19:23:08.950Z,7.40
2018-12-05T19:25:12.190Z,7.40
2018-12-05T19:27:15.366Z,7.40
2018-12-05T19:29:18.766Z,7.40
2018-12-05T19:31:22.056Z,7.40
2018-12-05T19:33:25.232Z,7.40
2018-12-05T19:35:28.443Z,7.40
2018-12-05T19:37:31.822Z,7.50
2018-12-05T19:39:34.922Z,7.50
2018-12-05T19:41:38.030Z,7.50
2018-12-05T19:43:41.130Z,7.50
2018-12-05T19:45:44.876Z,7.60
2018-12-05T19:47:48.047Z,7.60
2018-12-05T19:49:51.336Z,7.60
2018-12-05T19:51:54.507Z,7.60
2018-12-05T19:53:57.602Z,7.60
2018-12-05T19:56:00.835Z,7.60
2018-12-05T19:58:04.015Z,7.60
2018-12-05T20:00:09.398Z,7.60
2018-12-05T20:02:12.562Z,7.60
2018-12-05T20:04:15.717Z,7.70
2018-12-05T20:06:18.806Z,7.70
2018-12-05T20:08:21.967Z,7.70
2018-12-05T20:10:25.214Z,7.70
2018-12-05T20:12:28.462Z,7.70
2018-12-05T20:14:31.545Z,7.70
2018-12-05T20:16:34.712Z,7.70
2018-12-05T20:18:37.888Z,7.80
2018-12-05T20:20:41.142Z,7.80
2018-12-05T20:22:44.242Z,7.80
2018-12-05T20:24:47.330Z,7.80
2018-12-05T20:26:50.429Z,7.80
2018-12-05T20:28:53.587Z,7.80
2018-12-05T20:30:56.769Z,7.80
2018-12-05T20:32:59.854Z,7.80
2018-12-05T20:35:03.063Z,7.80
2018-12-05T20:37:06.223Z,7.90
2018-12-05T20:39:10.529Z,7.90
2018-12-05T20:41:13.771Z,7.90
2018-12-05T20:43:16.862Z,7.90
2018-12-05T20:45:20.022Z,7.90
2018-12-05T20:47:23.183Z,7.90
2018-12-05T20:49:26.347Z,7.90
2018-12-05T20:51:29.596Z,7.90
2018-12-05T20:53:32.688Z,7.90
2018-12-05T20:55:35.850Z,8.00
2018-12-05T20:57:39.047Z,7.90
2018-12-05T20:59:43.100Z,8.00
2018-12-05T21:01:46.507Z,8.00
2018-12-05T21:03:49.627Z,8.00
2018-12-05T21:05:52.799Z,8.00
2018-12-05T21:07:55.902Z,8.10
2018-12-05T21:09:59.083Z,8.10
2018-12-05T21:12:02.252Z,8.00
2018-12-05T21:14:05.476Z,8.10
2018-12-05T21:16:08.590Z,8.20
2018-12-05T21:18:11.810Z,8.20
2018-12-05T21:20:15.039Z,8.10
2018-12-05T21:22:18.250Z,8.10
2018-12-05T21:24:21.455Z,8.20
2018-12-05T21:26:24.587Z,8.20
2018-12-05T21:28:27.708Z,8.20
2018-12-05T21:30:30.834Z,8.20
2018-12-05T21:32:34.001Z,8.20
2018-12-05T21:34:37.134Z,8.20
2018-12-05T21:36:40.346Z,8.20
2018-12-05T21:38:43.476Z,8.30
2018-12-05T21:40:46.599Z,8.20
2018-12-05T21:42:49.719Z,8.30
2018-12-05T21:44:52.843Z,8.20
2018-12-05T21:46:56.019Z,8.30
2018-12-05T21:48:59.156Z,8.20
2018-12-05T21:51:02.274Z,8.20
2018-12-05T21:53:16.183Z,8.30
2018-12-05T21:55:24.239Z,8.20
2018-12-05T21:57:35.585Z,8.20
2018-12-05T21:59:43.807Z,8.20
2018-12-05T22:01:51.613Z,8.20
2018-12-05T22:03:58.682Z,8.20
2018-12-05T22:06:08.303Z,8.20
2018-12-05T22:08:20.186Z,8.20
2018-12-05T22:10:50.492Z,8.20
2018-12-05T22:13:02.561Z,8.20
2018-12-05T22:15:10.730Z,8.20
2018-12-05T22:17:15.965Z,8.30
2018-12-05T22:19:23.106Z,8.20
2018-12-05T22:21:31.439Z,8.20
2018-12-05T22:23:38.913Z,8.20
2018-12-05T22:25:44.360Z,8.30
2018-12-05T22:27:51.291Z,8.30
2018-12-05T22:30:04.809Z,8.20
2018-12-05T22:32:20.814Z,8.30
2018-12-05T22:34:40.674Z,8.30
2018-12-05T22:37:04.316Z,8.20
2018-12-05T22:39:38.742Z,8.20
2018-12-05T22:42:06.324Z,8.20
2018-12-05T22:49:51.377Z,8.10
2018-12-05T22:52:13.331Z,8.20
2018-12-05T22:54:21.680Z,8.20
2018-12-05T22:56:43.596Z,8.20
2018-12-05T22:59:02.734Z,8.20
2018-12-05T23:01:18.479Z,8.20
2018-12-05T23:03:25.249Z,8.20
2018-12-05T23:05:33.276Z,8.20
2018-12-05T23:07:46.336Z,8.20
2018-12-05T23:09:51.565Z,8.20
2018-12-05T23:12:01.663Z,8.20
2018-12-05T23:14:10.060Z,8.20
2018-12-05T23:16:14.801Z,8.20
2018-12-05T23:18:26.576Z,8.20
2018-12-05T23:20:42.079Z,8.20
2018-12-05T23:22:54.505Z,8.20
2018-12-05T23:25:07.907Z,8.30
2018-12-05T23:27:25.518Z,8.30
2018-12-05T23:29:35.888Z,8.30
2018-12-05T23:31:50.439Z,8.30
2018-12-05T23:34:05.188Z,8.30
2018-12-05T23:36:23.167Z,8.30
2018-12-05T23:38:38.649Z,8.30
2018-12-05T23:40:56.945Z,8.40
2018-12-05T23:43:14.330Z,8.40
2018-12-05T23:45:35.134Z,8.40
2018-12-05T23:47:55.940Z,8.30
2018-12-05T23:50:07.095Z,8.30
2018-12-05T23:52:20.762Z,8.40
2018-12-05T23:54:44.977Z,8.30
2018-12-05T23:56:58.559Z,8.30
2018-12-05T23:59:08.232Z,8.40
